Time;durP1;ratioP1;P1;durP2;ratioP2;P2;SDS_P1;SDS_P2;PMS_P1;PMS_P2;Temp;Humidity;BMP_temperature;BMP_pressure;BME280_temperature;BME280_humidity;BME280_pressure;Samples;Min_cycle;Max_cycle;Signal;HPM_P1;HPM_P2
2024/03/27 00:02:15;;;;;;;;;;;;;;;;;;2209806;66;1281;-17
2024/03/27 00:04:46;;;;;;;;;;;;;;;;;;2207422;66;1771;-17
2024/03/27 00:07:16;;;;;;;;;;;;;;;;;;2211031;58;1401;-17
2024/03/27 00:09:46;;;;;;;;;;;;;;;;;;2197649;67;1452;-17
2024/03/27 00:12:17;;;;;;;;;;;;;;;;;;2208385;58;1635;-17
2024/03/27 00:14:47;;;;;;;;;;;;;;;;;;2194055;59;1728;-17
2024/03/27 00:17:19;;;;;;;;;;;;;;;;;;2196251;66;1952;-17
2024/03/27 00:19:49;;;;;;;;;;;;;;;;;;2195030;59;1531;-17
2024/03/27 00:22:20;;;;;;;;;;;;;;;;;;2196520;59;1444;-17
2024/03/27 00:24:50;;;;;;;;;;;;;;;;;;2206606;59;1400;-17
2024/03/27 00:27:20;;;;;;;;;;;;;;;;;;2196768;67;1589;-17
2024/03/27 00:29:52;;;;;;;;;;;;;;;;;;2207413;67;1835;-17
2024/03/27 00:32:25;;;;;;;;;;;;;;;;;;2207130;66;1552;-17
2024/03/27 00:34:56;;;;;;;;;;;;;;;;;;2206347;59;1819;-17
2024/03/27 00:37:26;;;;;;;;;;;;;;;;;;2210686;66;1952;-17
2024/03/27 00:39:56;;;;;;;;;;;;;;;;;;2195735;59;1909;-17
2024/03/27 00:42:27;;;;;;;;;;;;;;;;;;2206652;59;1415;-17
2024/03/27 00:44:57;;;;;;;;;;;;;;;;;;2194697;67;1661;-17
2024/03/27 00:47:27;;;;;;;;;;;;;;;;;;2207654;67;1591;-17
2024/03/27 00:49:58;;;;;;;;;;;;;;;;;;2208761;58;3187;-17
2024/03/27 00:52:28;;;;;;;;;;;;;;;;;;2204059;59;1395;-17
2024/03/27 00:54:58;;;;;;;;;;;;;;;;;;2195988;59;1964;-17
2024/03/27 00:57:29;;;;;;;;;;;;;;;;;;2196591;67;1430;-17
2024/03/27 00:59:59;;;;;;;;;;;;;;;;;;2195568;59;1720;-17
2024/03/27 01:02:30;;;;;;;;;;;;;;;;;;2198802;67;1468;-17
2024/03/27 01:05:00;;;;;;;;;;;;;;;;;;2197764;67;1219;-17
2024/03/27 01:07:30;;;;;;;;;;;;;;;;;;2208947;58;2291;-17
2024/03/27 01:10:01;;;;;;;;;;;;;;;;;;2197032;59;1621;-17
2024/03/27 01:12:32;;;;;;;;;;;;;;;;;;2196036;59;2319;-17
2024/03/27 01:15:02;;;;;;;;;;;;;;;;;;2211149;58;1916;-17
2024/03/27 01:17:33;;;;;;;;;;;;;;;;;;2206737;66;2275;-17
2024/03/27 01:20:05;;;;;;;;;;;;;;;;;;2197077;59;1559;-17
2024/03/27 01:22:35;;;;;;;;;;;;;;;;;;2207159;59;2438;-17
2024/03/27 01:25:06;;;;;;;;;;;;;;;;;;2197934;67;1629;-17
2024/03/27 01:27:36;;;;;;;;;;;;;;;;;;2195735;67;1494;-17
2024/03/27 01:30:07;;;;;;;;;;;;;;;;;;2210465;66;1518;-17
2024/03/27 01:32:47;;;;;;;;;;;;;;;;;;2207785;66;1670;-17
2024/03/27 01:35:18;;;;;;;;;;;;;;;;;;2197127;66;1999;-17
2024/03/27 01:37:48;;;;;;;;;;;;;;;;;;2196196;64;1552;-17
2024/03/27 01:40:30;;;;;;;;;;;;;;;;;;2198480;59;2372;-17
2024/03/27 01:43:01;;;;;;;;;;;;;;;;;;2197494;67;1551;-17
2024/03/27 01:45:31;;;;;;;;;;;;;;;;;;2195734;59;1346;-17
2024/03/27 01:48:02;;;;;;;;;;;;;;;;;;2195030;67;1579;-17
2024/03/27 01:50:34;;;;;;;;;;;;;;;;;;2196184;66;1520;-17
2024/03/27 01:53:05;;;;;;;;;;;;;;;;;;2207980;67;1805;-17
2024/03/27 01:55:38;;;;;;;;;;;;;;;;;;2207066;66;1944;-17
2024/03/27 01:58:08;;;;;;;;;;;;;;;;;;2198110;67;1574;-17
2024/03/27 02:00:39;;;;;;;;;;;;;;;;;;2206890;66;1619;-17
2024/03/27 02:03:10;;;;;;;;;;;;;;;;;;2209674;66;1521;-17
2024/03/27 02:05:48;;;;;;;;;;;;;;;;;;2204996;67;1668;-17
2024/03/27 02:08:18;;;;;;;;;;;;;;;;;;2206978;59;1612;-17
2024/03/27 02:10:48;;;;;;;;;;;;;;;;;;2208855;59;1631;-17
2024/03/27 02:13:19;;;;;;;;;;;;;;;;;;2196246;59;1711;-17
2024/03/27 02:15:58;;;;;;;;;;;;;;;;;;2196703;66;1991;-17
2024/03/27 02:18:28;;;;;;;;;;;;;;;;;;2198832;67;1620;-17
2024/03/27 02:20:59;;;;;;;;;;;;;;;;;;2199189;59;1717;-17
2024/03/27 02:23:33;;;;;;;;;;;;;;;;;;2211922;59;1948;-17
2024/03/27 02:26:17;;;;;;;;;;;;;;;;;;2194893;59;1622;-17
2024/03/27 02:28:47;;;;;;;;;;;;;;;;;;2195880;66;1470;-18
2024/03/27 02:31:17;;;;;;;;;;;;;;;;;;2198293;67;1524;-17
2024/03/27 02:33:48;;;;;;;;;;;;;;;;;;2195701;59;1815;-17
2024/03/27 02:36:25;;;;;;;;;;;;;;;;;;2209202;66;2020;-17
2024/03/27 02:38:56;;;;;;;;;;;;;;;;;;2195921;59;1951;-17
2024/03/27 02:41:26;;;;;;;;;;;;;;;;;;2207214;59;1599;-17
2024/03/27 02:43:57;;;;;;;;;;;;;;;;;;2206105;67;1707;-17
2024/03/27 02:46:27;;;;;;;;;;;;;;;;;;2196768;67;1812;-17
2024/03/27 02:48:57;;;;;;;;;;;;;;;;;;2206763;67;1660;-17
2024/03/27 02:51:28;;;;;;;;;;;;;;;;;;2197056;67;1514;-17
2024/03/27 02:54:00;;;;;;;;;;;;;;;;;;2208307;66;1636;-17
2024/03/27 02:56:31;;;;;;;;;;;;;;;;;;2196594;67;1910;-17
2024/03/27 02:59:01;;;;;;;;;;;;;;;;;;2205935;59;1431;-17
2024/03/27 03:01:32;;;;;;;;;;;;;;;;;;2209437;66;1644;-17
2024/03/27 03:04:02;;;;;;;;;;;;;;;;;;2206018;66;1531;-17
2024/03/27 03:06:33;;;;;;;;;;;;;;;;;;2192781;67;1603;-17
2024/03/27 03:09:06;;;;;;;;;;;;;;;;;;2208606;66;1378;-17
2024/03/27 03:11:37;;;;;;;;;;;;;;;;;;2196836;59;1554;-17
2024/03/27 03:14:07;;;;;;;;;;;;;;;;;;2206297;59;1481;-17
2024/03/27 03:16:38;;;;;;;;;;;;;;;;;;2209252;66;1993;-17
2024/03/27 03:19:08;;;;;;;;;;;;;;;;;;2196728;59;1411;-17
2024/03/27 03:21:38;;;;;;;;;;;;;;;;;;2194700;59;1330;-17
2024/03/27 03:24:09;;;;;;;;;;;;;;;;;;2196751;59;1961;-17
2024/03/27 03:26:39;;;;;;;;;;;;;;;;;;2198293;67;1687;-17
2024/03/27 03:29:09;;;;;;;;;;;;;;;;;;2210154;66;1498;-17
2024/03/27 03:31:40;;;;;;;;;;;;;;;;;;2195319;67;1723;-17
2024/03/27 03:34:10;;;;;;;;;;;;;;;;;;2196019;59;1957;-17
2024/03/27 03:36:40;;;;;;;;;;;;;;;;;;2196971;67;1987;-17
2024/03/27 03:39:11;;;;;;;;;;;;;;;;;;2208195;59;1945;-17
2024/03/27 03:41:41;;;;;;;;;;;;;;;;;;2206964;58;1807;-17
2024/03/27 03:44:11;;;;;;;;;;;;;;;;;;2203282;67;1599;-17
2024/03/27 03:46:42;;;;;;;;;;;;;;;;;;2207071;59;1459;-17
2024/03/27 03:49:12;;;;;;;;;;;;;;;;;;2199379;67;1696;-17
2024/03/27 03:51:43;;;;;;;;;;;;;;;;;;2196525;67;1404;-17
2024/03/27 03:54:13;;;;;;;;;;;;;;;;;;2208605;67;1965;-17
2024/03/27 03:56:43;;;;;;;;;;;;;;;;;;2196299;67;1939;-17
2024/03/27 03:59:14;;;;;;;;;;;;;;;;;;2208179;59;1400;-17
2024/03/27 04:01:44;;;;;;;;;;;;;;;;;;2207257;67;2220;-17
2024/03/27 04:04:15;;;;;;;;;;;;;;;;;;2196942;67;1436;-17
2024/03/27 04:06:45;;;;;;;;;;;;;;;;;;2206588;59;1674;-17
2024/03/27 04:09:17;;;;;;;;;;;;;;;;;;2197399;67;1579;-17
2024/03/27 04:11:47;;;;;;;;;;;;;;;;;;2194911;59;1518;-17
2024/03/27 04:14:18;;;;;;;;;;;;;;;;;;2208434;59;1437;-17
2024/03/27 04:16:48;;;;;;;;;;;;;;;;;;2195388;67;1936;-17
2024/03/27 04:19:18;;;;;;;;;;;;;;;;;;2206899;67;1913;-17
2024/03/27 04:21:49;;;;;;;;;;;;;;;;;;2197082;59;1510;-17
2024/03/27 04:24:21;;;;;;;;;;;;;;;;;;2197585;59;1508;-17
2024/03/27 04:26:52;;;;;;;;;;;;;;;;;;2204472;67;1803;-17
2024/03/27 04:29:22;;;;;;;;;;;;;;;;;;2198235;67;1557;-17
2024/03/27 04:31:54;;;;;;;;;;;;;;;;;;2194598;67;1679;-17
2024/03/27 04:34:24;;;;;;;;;;;;;;;;;;2207441;59;1748;-17
2024/03/27 04:36:54;;;;;;;;;;;;;;;;;;2195934;67;1933;-17
2024/03/27 04:39:25;;;;;;;;;;;;;;;;;;2199131;59;1631;-17
2024/03/27 04:41:55;;;;;;;;;;;;;;;;;;2196658;59;1497;-17
2024/03/27 04:44:28;;;;;;;;;;;;;;;;;;2194653;59;1736;-17
2024/03/27 04:46:58;;;;;;;;;;;;;;;;;;2194693;67;1963;-17
2024/03/27 04:49:28;;;;;;;;;;;;;;;;;;2197782;67;1645;-17
2024/03/27 04:51:59;;;;;;;;;;;;;;;;;;2208068;66;1633;-17
2024/03/27 04:54:30;;;;;;;;;;;;;;;;;;2198081;67;1323;-17
2024/03/27 04:57:00;;;;;;;;;;;;;;;;;;2194618;66;2023;-17
2024/03/27 04:59:30;;;;;;;;;;;;;;;;;;2198045;59;1373;-17
2024/03/27 05:02:01;;;;;;;;;;;;;;;;;;2195643;67;2103;-17
2024/03/27 05:04:32;;;;;;;;;;;;;;;;;;2197071;67;1573;-17
2024/03/27 05:07:02;;;;;;;;;;;;;;;;;;2208922;59;1580;-17
2024/03/27 05:09:34;;;;;;;;;;;;;;;;;;2196212;67;1619;-17
2024/03/27 05:12:05;;;;;;;;;;;;;;;;;;2197074;59;1464;-17
2024/03/27 05:14:35;;;;;;;;;;;;;;;;;;2195490;59;1678;-17
2024/03/27 05:17:08;;;;;;;;;;;;;;;;;;2204720;67;2063;-17
2024/03/27 05:19:39;;;;;;;;;;;;;;;;;;2197571;67;2024;-17
2024/03/27 05:22:15;;;;;;;;;;;;;;;;;;2196689;59;1673;-17
2024/03/27 05:24:47;;;;;;;;;;;;;;;;;;2207595;59;1939;-17
2024/03/27 05:27:18;;;;;;;;;;;;;;;;;;2195599;59;1623;-17
2024/03/27 05:29:50;;;;;;;;;;;;;;;;;;2194254;67;1475;-17
2024/03/27 05:32:20;;;;;;;;;;;;;;;;;;2207314;66;1908;-17
2024/03/27 05:34:50;;;;;;;;;;;;;;;;;;2196151;59;1757;-17
2024/03/27 05:37:21;;;;;;;;;;;;;;;;;;2198902;66;1944;-17
2024/03/27 05:39:51;;;;;;;;;;;;;;;;;;2196077;59;1852;-17
2024/03/27 05:42:21;;;;;;;;;;;;;;;;;;2196846;59;1881;-17
2024/03/27 05:44:52;;;;;;;;;;;;;;;;;;2195602;59;1990;-17
2024/03/27 05:47:22;;;;;;;;;;;;;;;;;;2197755;67;1505;-17
2024/03/27 05:49:52;;;;;;;;;;;;;;;;;;2196642;66;1477;-17
2024/03/27 05:52:23;;;;;;;;;;;;;;;;;;2198056;66;1243;-17
2024/03/27 05:54:53;;;;;;;;;;;;;;;;;;2197499;67;2017;-17
2024/03/27 05:57:23;;;;;;;;;;;;;;;;;;2208613;66;1946;-17
2024/03/27 05:59:54;;;;;;;;;;;;;;;;;;2209559;58;1845;-17
2024/03/27 06:02:24;;;;;;;;;;;;;;;;;;2211532;66;1526;-17
2024/03/27 06:04:54;;;;;;;;;;;;;;;;;;2194968;66;1496;-17
2024/03/27 06:07:25;;;;;;;;;;;;;;;;;;2196991;59;1870;-17
2024/03/27 06:09:55;;;;;;;;;;;;;;;;;;2192720;67;1912;-17
2024/03/27 06:12:25;;;;;;;;;;;;;;;;;;2198183;66;1495;-18
2024/03/27 06:14:56;;;;;;;;;;;;;;;;;;2206819;59;1540;-17
2024/03/27 06:17:26;;;;;;;;;;;;;;;;;;2196402;67;1993;-17
2024/03/27 06:19:57;;;;;;;;;;;;;;;;;;2197467;59;1631;-17
2024/03/27 06:22:27;;;;;;;;;;;;;;;;;;2209319;59;1713;-17
2024/03/27 06:24:57;;;;;;;;;;;;;;;;;;2195761;59;1924;-17
2024/03/27 06:27:27;;;;;;;;;;;;;;;;;;2207913;66;1602;-17
2024/03/27 06:29:58;;;;;;;;;;;;;;;;;;2194886;66;1544;-17
2024/03/27 06:32:28;;;;;;;;;;;;;;;;;;2196401;67;1605;-17
2024/03/27 06:34:59;;;;;;;;;;;;;;;;;;2207154;59;1750;-17
2024/03/27 06:37:31;;;;;;;;;;;;;;;;;;2208022;59;1947;-17
2024/03/27 06:40:01;;;;;;;;;;;;;;;;;;2205579;59;2031;-17
2024/03/27 06:42:31;;;;;;;;;;;;;;;;;;2211308;66;1560;-17
2024/03/27 06:45:02;;;;;;;;;;;;;;;;;;2195149;59;1916;-18
2024/03/27 06:47:32;;;;;;;;;;;;;;;;;;2207927;67;1515;-17
2024/03/27 06:50:04;;;;;;;;;;;;;;;;;;2197034;66;1577;-17
2024/03/27 06:52:34;;;;;;;;;;;;;;;;;;2196249;67;1467;-17
2024/03/27 06:55:04;;;;;;;;;;;;;;;;;;2195851;67;1362;-17
2024/03/27 06:57:35;;;;;;;;;;;;;;;;;;2197798;67;2156;-17
2024/03/27 07:00:05;;;;;;;;;;;;;;;;;;2205801;59;2656;-18
2024/03/27 07:02:36;;;;;;;;;;;;;;;;;;2196487;66;2242;-17
2024/03/27 07:05:07;;;;;;;;;;;;;;;;;;2196750;66;2223;-17
2024/03/27 07:07:37;;;;;;;;;;;;;;;;;;2210047;58;2639;-17
2024/03/27 07:10:08;;;;;;;;;;;;;;;;;;2196940;59;2245;-17
2024/03/27 07:12:39;;;;;;;;;;;;;;;;;;2206812;59;2172;-17
2024/03/27 07:15:09;;;;;;;;;;;;;;;;;;2195385;59;2607;-17
2024/03/27 07:17:39;;;;;;;;;;;;;;;;;;2210508;58;2206;-17
2024/03/27 07:20:10;;;;;;;;;;;;;;;;;;2196293;59;2503;-18
2024/03/27 07:22:41;;;;;;;;;;;;;;;;;;2196820;59;2234;-18
2024/03/27 07:25:11;;;;;;;;;;;;;;;;;;2195253;59;2683;-18
2024/03/27 07:27:42;;;;;;;;;;;;;;;;;;2196389;59;2260;-18
2024/03/27 07:30:12;;;;;;;;;;;;;;;;;;2194982;67;2679;-18
2024/03/27 07:32:42;;;;;;;;;;;;;;;;;;2197796;67;2198;-18
2024/03/27 07:35:13;;;;;;;;;;;;;;;;;;2206144;59;2231;-18
2024/03/27 07:37:43;;;;;;;;;;;;;;;;;;2198048;59;2614;-20
2024/03/27 07:40:13;;;;;;;;;;;;;;;;;;2194261;59;2679;-18
2024/03/27 07:42:44;;;;;;;;;;;;;;;;;;2209104;59;3032;-18
2024/03/27 07:45:14;;;;;;;;;;;;;;;;;;2208643;58;2484;-18
2024/03/27 07:47:44;;;;;;;;;;;;;;;;;;2196055;59;2632;-18
2024/03/27 07:50:15;;;;;;;;;;;;;;;;;;2195574;59;2411;-18
2024/03/27 07:52:45;;;;;;;;;;;;;;;;;;2205084;59;2121;-18
2024/03/27 07:55:16;;;;;;;;;;;;;;;;;;2208122;59;1961;-18
2024/03/27 07:57:46;;;;;;;;;;;;;;;;;;2197838;59;1924;-18
2024/03/27 08:00:16;;;;;;;;;;;;;;;;;;2194430;59;2701;-18
2024/03/27 08:02:47;;;;;;;;;;;;;;;;;;2210116;66;1605;-18
2024/03/27 08:05:18;;;;;;;;;;;;;;;;;;2193330;59;2551;-18
2024/03/27 08:07:49;;;;;;;;;;;;;;;;;;2207443;59;1821;-18
2024/03/27 08:10:19;;;;;;;;;;;;;;;;;;2196173;59;1930;-18
2024/03/27 08:15:26;;;;;;;;;;;;;;;;;;2210053;58;2140;-23
2024/03/27 08:17:56;;;;;;;;;;;;;;;;;;2211720;58;1757;-23
2024/03/27 08:20:27;;;;;;;;;;;;;;;;;;2213763;58;2047;-23
2024/03/27 08:22:57;;;;;;;;;;;;;;;;;;2210620;58;1813;-23
2024/03/27 08:25:32;;;;;;;;;;;;;;;;;;2213238;66;1572;-23
2024/03/27 08:28:03;;;;;;;;;;;;;;;;;;2210921;66;1777;-23
2024/03/27 08:30:33;;;;;;;;;;;;;;;;;;2211385;59;2441;-23
2024/03/27 08:33:03;;;;;;;;;;;;;;;;;;2212832;66;1931;-23
2024/03/27 08:35:36;;;;;;;;;;;;;;;;;;2214256;58;1973;-23
2024/03/27 08:38:06;;;;;;;;;;;;;;;;;;2210507;58;2605;-23
2024/03/27 08:40:36;;;;;;;;;;;;;;;;;;2213589;58;2408;-23
2024/03/27 08:43:07;;;;;;;;;;;;;;;;;;2212699;66;3087;-23
2024/03/27 08:45:37;;;;;;;;;;;;;;;;;;2213940;58;1931;-23
2024/03/27 08:48:07;;;;;;;;;;;;;;;;;;2203822;59;2228;-23
2024/03/27 08:50:38;;;;;;;;;;;;;;;;;;2211102;59;1742;-23
2024/03/27 08:53:08;;;;;;;;;;;;;;;;;;2212460;66;2867;-23
2024/03/27 08:55:43;;;;;;;;;;;;;;;;;;2213431;66;2232;-23
2024/03/27 08:58:13;;;;;;;;;;;;;;;;;;2210505;66;2368;-23
2024/03/27 09:00:43;;;;;;;;;;;;;;;;;;2210150;58;3181;-23
2024/03/27 09:03:14;;;;;;;;;;;;;;;;;;2212953;58;2583;-23
2024/03/27 09:05:44;;;;;;;;;;;;;;;;;;2212503;58;2099;-23
2024/03/27 09:08:14;;;;;;;;;;;;;;;;;;2209964;66;1887;-23
2024/03/27 09:10:45;;;;;;;;;;;;;;;;;;2213650;58;2151;-23
2024/03/27 09:13:15;;;;;;;;;;;;;;;;;;2212093;58;1989;-23
2024/03/27 09:15:47;;;;;;;;;;;;;;;;;;2211083;59;2181;-23
2024/03/27 09:18:17;;;;;;;;;;;;;;;;;;2208756;58;2917;-23
2024/03/27 09:20:54;;;;;;;;;;;;;;;;;;2214365;58;2340;-23
2024/03/27 09:23:24;;;;;;;;;;;;;;;;;;2212670;58;2543;-23
2024/03/27 09:25:55;;;;;;;;;;;;;;;;;;2212776;58;2752;-23
2024/03/27 09:28:26;;;;;;;;;;;;;;;;;;2209358;58;2517;-23
2024/03/27 09:31:01;;;;;;;;;;;;;;;;;;2210232;58;2509;-23
2024/03/27 09:33:32;;;;;;;;;;;;;;;;;;2211680;58;2617;-23
2024/03/27 09:36:11;;;;;;;;;;;;;;;;;;2212448;58;2043;-23
2024/03/27 09:38:42;;;;;;;;;;;;;;;;;;2212488;58;2401;-23
2024/03/27 09:41:12;;;;;;;;;;;;;;;;;;2212271;58;2205;-23
2024/03/27 09:43:44;;;;;;;;;;;;;;;;;;2213562;58;2225;-24
2024/03/27 09:46:14;;;;;;;;;;;;;;;;;;2212841;58;2051;-24
2024/03/27 09:48:47;;;;;;;;;;;;;;;;;;2211783;58;2406;-23
2024/03/27 09:51:19;;;;;;;;;;;;;;;;;;2209051;58;2337;-23
2024/03/27 09:53:50;;;;;;;;;;;;;;;;;;2209567;58;2351;-23
2024/03/27 09:56:20;;;;;;;;;;;;;;;;;;2212259;59;2092;-23
2024/03/27 09:58:50;;;;;;;;;;;;;;;;;;2212692;58;2220;-23
2024/03/27 10:01:20;;;;;;;;;;;;;;;;;;2211968;66;2102;-23
2024/03/27 10:03:51;;;;;;;;;;;;;;;;;;2213740;66;2444;-23
2024/03/27 10:06:21;;;;;;;;;;;;;;;;;;2211561;58;2246;-23
2024/03/27 10:08:51;;;;;;;;;;;;;;;;;;2209922;58;1955;-23
2024/03/27 10:11:21;;;;;;;;;;;;;;;;;;2212327;58;2030;-23
2024/03/27 10:13:52;;;;;;;;;;;;;;;;;;2210631;58;1973;-23
2024/03/27 10:16:22;;;;;;;;;;;;;;;;;;2211023;66;2272;-23
2024/03/27 10:18:52;;;;;;;;;;;;;;;;;;2210573;66;2243;-22
2024/03/27 10:21:22;;;;;;;;;;;;;;;;;;2213119;58;2049;-22
2024/03/27 10:23:53;;;;;;;;;;;;;;;;;;2213488;66;2677;-22
2024/03/27 10:26:23;;;;;;;;;;;;;;;;;;2210097;59;2274;-22
2024/03/27 10:28:55;;;;;;;;;;;;;;;;;;2210816;58;2609;-22
2024/03/27 10:31:25;;;;;;;;;;;;;;;;;;2207666;59;2219;-22
2024/03/27 10:33:56;;;;;;;;;;;;;;;;;;2213417;58;2228;-22
2024/03/27 10:36:26;;;;;;;;;;;;;;;;;;2213305;66;2802;-22
2024/03/27 10:38:57;;;;;;;;;;;;;;;;;;2210724;58;2649;-22
2024/03/27 10:41:27;;;;;;;;;;;;;;;;;;2213249;58;1842;-22
2024/03/27 10:43:58;;;;;;;;;;;;;;;;;;2210483;66;2542;-22
2024/03/27 10:46:31;;;;;;;;;;;;;;;;;;2209582;66;1990;-22
2024/03/27 10:49:03;;;;;;;;;;;;;;;;;;2210395;66;2444;-22
2024/03/27 10:51:33;;;;;;;;;;;;;;;;;;2212733;59;1960;-22
2024/03/27 10:54:04;;;;;;;;;;;;;;;;;;2210705;58;2341;-22
2024/03/27 10:56:35;;;;;;;;;;;;;;;;;;2213407;66;1990;-22
2024/03/27 10:59:06;;;;;;;;;;;;;;;;;;2210828;58;1939;-22
2024/03/27 11:01:39;;;;;;;;;;;;;;;;;;2214154;66;2368;-22
2024/03/27 11:04:09;;;;;;;;;;;;;;;;;;2212502;66;2247;-22
2024/03/27 11:06:40;;;;;;;;;;;;;;;;;;2213417;58;2758;-22
2024/03/27 11:09:16;;;;;;;;;;;;;;;;;;2210370;66;2125;-22
2024/03/27 11:11:47;;;;;;;;;;;;;;;;;;2211231;58;2339;-22
2024/03/27 11:14:23;;;;;;;;;;;;;;;;;;2212188;58;3001;-22
2024/03/27 11:16:55;;;;;;;;;;;;;;;;;;2214262;58;2653;-22
2024/03/27 11:19:31;;;;;;;;;;;;;;;;;;2209810;59;2301;-22
2024/03/27 11:22:21;;;;;;;;;;;;;;;;;;2210406;58;2206;-22
2024/03/27 11:24:52;;;;;;;;;;;;;;;;;;2213032;58;2508;-22
2024/03/27 11:27:29;;;;;;;;;;;;;;;;;;2212964;58;2381;-22
2024/03/27 11:29:59;;;;;;;;;;;;;;;;;;2214292;66;2064;-22
2024/03/27 11:32:39;;;;;;;;;;;;;;;;;;2207767;58;2060;-22
2024/03/27 11:35:09;;;;;;;;;;;;;;;;;;2212532;58;2117;-22
2024/03/27 11:37:40;;;;;;;;;;;;;;;;;;2211474;58;2337;-22
2024/03/27 11:40:10;;;;;;;;;;;;;;;;;;2207030;58;2908;-22
2024/03/27 11:42:41;;;;;;;;;;;;;;;;;;2211795;66;2091;-22
2024/03/27 11:45:11;;;;;;;;;;;;;;;;;;2212642;66;2819;-22
2024/03/27 11:47:43;;;;;;;;;;;;;;;;;;2213075;58;2488;-22
2024/03/27 11:50:13;;;;;;;;;;;;;;;;;;2212735;66;3388;-22
2024/03/27 11:52:43;;;;;;;;;;;;;;;;;;2209795;58;2317;-22
2024/03/27 11:55:14;;;;;;;;;;;;;;;;;;2206327;58;2459;-22
2024/03/27 11:57:44;;;;;;;;;;;;;;;;;;2212122;58;2309;-22
2024/03/27 12:00:14;;;;;;;;;;;;;;;;;;2207490;58;2477;-22
2024/03/27 12:02:45;;;;;;;;;;;;;;;;;;2208204;58;2322;-22
2024/03/27 12:05:16;;;;;;;;;;;;;;;;;;2205437;58;2146;-22
2024/03/27 12:07:47;;;;;;;;;;;;;;;;;;2209275;66;2569;-22
2024/03/27 12:10:19;;;;;;;;;;;;;;;;;;2177699;66;2002;-22
2024/03/27 12:12:49;;;;;;;;;;;;;;;;;;2202195;58;2326;-22
2024/03/27 12:15:19;;;;;;;;;;;;;;;;;;2211675;58;2207;-22
2024/03/27 12:17:54;;;;;;;;;;;;;;;;;;2212096;66;2518;-22
2024/03/27 12:20:30;;;;;;;;;;;;;;;;;;2212492;58;1960;-22
2024/03/27 12:23:00;;;;;;;;;;;;;;;;;;2210026;58;2476;-22
2024/03/27 12:25:31;;;;;;;;;;;;;;;;;;2208749;58;2150;-22
2024/03/27 12:28:04;;;;;;;;;;;;;;;;;;2210000;59;2472;-22
2024/03/27 12:30:37;;;;;;;;;;;;;;;;;;2211104;58;2093;-22
2024/03/27 12:33:08;;;;;;;;;;;;;;;;;;2209232;58;2559;-22
2024/03/27 12:35:38;;;;;;;;;;;;;;;;;;2208478;66;2294;-22
2024/03/27 12:38:08;;;;;;;;;;;;;;;;;;2213590;58;2363;-22
2024/03/27 12:40:38;;;;;;;;;;;;;;;;;;2212680;58;2423;-22
2024/03/27 12:43:09;;;;;;;;;;;;;;;;;;2207408;59;1792;-22
2024/03/27 12:45:39;;;;;;;;;;;;;;;;;;2208693;58;2241;-22
2024/03/27 12:48:19;;;;;;;;;;;;;;;;;;2207954;58;2234;-22
2024/03/27 12:50:50;;;;;;;;;;;;;;;;;;2206765;66;1991;-22
2024/03/27 12:53:21;;;;;;;;;;;;;;;;;;2212183;66;2241;-22
2024/03/27 12:55:51;;;;;;;;;;;;;;;;;;2207622;66;2136;-22
2024/03/27 12:58:22;;;;;;;;;;;;;;;;;;2209161;66;3017;-22
2024/03/27 13:00:52;;;;;;;;;;;;;;;;;;2213947;66;2545;-22
2024/03/27 13:03:22;;;;;;;;;;;;;;;;;;2212161;59;2075;-22
2024/03/27 13:05:52;;;;;;;;;;;;;;;;;;2213620;66;1847;-22
2024/03/27 13:08:22;;;;;;;;;;;;;;;;;;2212123;66;2600;-22
2024/03/27 13:10:53;;;;;;;;;;;;;;;;;;2211603;58;1913;-22
2024/03/27 13:13:23;;;;;;;;;;;;;;;;;;2210483;58;1935;-22
2024/03/27 13:15:53;;;;;;;;;;;;;;;;;;2214195;66;1939;-22
2024/03/27 13:18:24;;;;;;;;;;;;;;;;;;2212616;66;1958;-22
2024/03/27 13:20:54;;;;;;;;;;;;;;;;;;2211190;58;1978;-22
2024/03/27 13:23:24;;;;;;;;;;;;;;;;;;2208924;58;1902;-21
2024/03/27 13:25:54;;;;;;;;;;;;;;;;;;2210334;66;1773;-21
2024/03/27 13:28:24;;;;;;;;;;;;;;;;;;2209679;66;1826;-21
2024/03/27 13:30:55;;;;;;;;;;;;;;;;;;2210173;66;1976;-21
2024/03/27 13:33:25;;;;;;;;;;;;;;;;;;2211980;66;2564;-21
2024/03/27 13:35:55;;;;;;;;;;;;;;;;;;2213354;66;2372;-21
2024/03/27 13:38:25;;;;;;;;;;;;;;;;;;2212311;58;1840;-21
2024/03/27 13:40:56;;;;;;;;;;;;;;;;;;2210286;58;2093;-21
2024/03/27 13:43:26;;;;;;;;;;;;;;;;;;2212449;66;2460;-21
2024/03/27 13:45:56;;;;;;;;;;;;;;;;;;2213164;58;3114;-21
2024/03/27 13:48:26;;;;;;;;;;;;;;;;;;2206776;59;3385;-21
2024/03/27 13:50:57;;;;;;;;;;;;;;;;;;2212809;58;2647;-21
2024/03/27 13:53:27;;;;;;;;;;;;;;;;;;2212678;66;1951;-21
2024/03/27 13:55:57;;;;;;;;;;;;;;;;;;2210021;66;2019;-22
2024/03/27 13:58:28;;;;;;;;;;;;;;;;;;2213230;66;2576;-21
2024/03/27 14:00:58;;;;;;;;;;;;;;;;;;2213452;66;1873;-21
2024/03/27 14:03:28;;;;;;;;;;;;;;;;;;2213210;66;2958;-21
2024/03/27 14:05:58;;;;;;;;;;;;;;;;;;2214368;66;1912;-21
2024/03/27 14:08:29;;;;;;;;;;;;;;;;;;2210051;66;1914;-21
2024/03/27 14:10:59;;;;;;;;;;;;;;;;;;2214742;58;1840;-21
2024/03/27 14:13:29;;;;;;;;;;;;;;;;;;2209435;58;2418;-21
2024/03/27 14:16:00;;;;;;;;;;;;;;;;;;2205505;66;2058;-22
2024/03/27 14:18:30;;;;;;;;;;;;;;;;;;2206684;66;2473;-21
2024/03/27 14:21:00;;;;;;;;;;;;;;;;;;2207586;59;1915;-22
2024/03/27 14:23:31;;;;;;;;;;;;;;;;;;2206070;59;1881;-22
2024/03/27 14:26:01;;;;;;;;;;;;;;;;;;2210947;66;3026;-22
2024/03/27 14:28:31;;;;;;;;;;;;;;;;;;2210169;66;1860;-22
2024/03/27 14:31:03;;;;;;;;;;;;;;;;;;2211198;66;2576;-22
2024/03/27 14:33:33;;;;;;;;;;;;;;;;;;2205970;58;1761;-23
2024/03/27 14:36:03;;;;;;;;;;;;;;;;;;2209859;58;2354;-24
2024/03/27 14:38:34;;;;;;;;;;;;;;;;;;2209509;58;2071;-22
2024/03/27 14:41:04;;;;;;;;;;;;;;;;;;2211621;58;2274;-22
2024/03/27 14:43:34;;;;;;;;;;;;;;;;;;2209316;58;2617;-22
2024/03/27 14:46:05;;;;;;;;;;;;;;;;;;2211208;58;2278;-22
2024/03/27 14:48:35;;;;;;;;;;;;;;;;;;2208027;58;2339;-23
2024/03/27 14:51:05;;;;;;;;;;;;;;;;;;2210579;66;2038;-23
2024/03/27 14:53:35;;;;;;;;;;;;;;;;;;2209965;59;2896;-23
2024/03/27 14:56:07;;;;;;;;;;;;;;;;;;2207073;66;1931;-23
2024/03/27 14:58:37;;;;;;;;;;;;;;;;;;2206011;58;2391;-23
2024/03/27 15:01:07;;;;;;;;;;;;;;;;;;2210023;66;1512;-22
2024/03/27 15:03:38;;;;;;;;;;;;;;;;;;2206429;66;2245;-22
2024/03/27 15:06:08;;;;;;;;;;;;;;;;;;2208093;66;1881;-23
2024/03/27 15:08:38;;;;;;;;;;;;;;;;;;2205964;66;2812;-23
2024/03/27 15:11:08;;;;;;;;;;;;;;;;;;2210231;59;1933;-23
2024/03/27 15:13:38;;;;;;;;;;;;;;;;;;2203982;59;1943;-22
2024/03/27 15:16:09;;;;;;;;;;;;;;;;;;2208305;66;1994;-22
2024/03/27 15:18:39;;;;;;;;;;;;;;;;;;2209490;66;1968;-22
2024/03/27 15:21:10;;;;;;;;;;;;;;;;;;2210632;58;1715;-22
2024/03/27 15:23:40;;;;;;;;;;;;;;;;;;2206174;59;2199;-23
2024/03/27 15:26:10;;;;;;;;;;;;;;;;;;2207069;66;2718;-23
2024/03/27 15:28:40;;;;;;;;;;;;;;;;;;2206214;66;2758;-23
2024/03/27 15:31:11;;;;;;;;;;;;;;;;;;2207608;58;2922;-23
2024/03/27 15:33:41;;;;;;;;;;;;;;;;;;2209121;59;2105;-22
2024/03/27 15:36:11;;;;;;;;;;;;;;;;;;2207538;66;1968;-23
2024/03/27 15:38:41;;;;;;;;;;;;;;;;;;2209216;58;2258;-22
2024/03/27 15:41:12;;;;;;;;;;;;;;;;;;2210581;58;2267;-23
2024/03/27 15:43:42;;;;;;;;;;;;;;;;;;2208915;58;2065;-22
2024/03/27 15:46:13;;;;;;;;;;;;;;;;;;2209555;58;1971;-22
2024/03/27 15:48:44;;;;;;;;;;;;;;;;;;2203846;59;3049;-23
2024/03/27 15:51:15;;;;;;;;;;;;;;;;;;2207215;66;1850;-22
2024/03/27 15:53:45;;;;;;;;;;;;;;;;;;2208577;66;2116;-22
2024/03/27 15:56:17;;;;;;;;;;;;;;;;;;2209647;59;1948;-22
2024/03/27 15:58:47;;;;;;;;;;;;;;;;;;2209928;58;2109;-28
2024/03/27 16:01:17;;;;;;;;;;;;;;;;;;2210766;58;2383;-24
2024/03/27 16:03:47;;;;;;;;;;;;;;;;;;2206046;59;2394;-24
2024/03/27 16:06:18;;;;;;;;;;;;;;;;;;2209763;58;4135;-25
2024/03/27 16:08:48;;;;;;;;;;;;;;;;;;2188477;59;4187;-25
2024/03/27 16:11:18;;;;;;;;;;;;;;;;;;2189312;59;4257;-24
2024/03/27 16:13:48;;;;;;;;;;;;;;;;;;2190233;59;4778;-25
2024/03/27 16:16:18;;;;;;;;;;;;;;;;;;2195510;59;5550;-24
2024/03/27 16:18:49;;;;;;;;;;;;;;;;;;2192739;59;4375;-24
2024/03/27 16:21:19;;;;;;;;;;;;;;;;;;2195380;59;5195;-24
2024/03/27 16:23:49;;;;;;;;;;;;;;;;;;2192804;59;4313;-25
2024/03/27 16:26:19;;;;;;;;;;;;;;;;;;2192843;59;4565;-25
2024/03/27 16:28:49;;;;;;;;;;;;;;;;;;2189399;59;4737;-23
2024/03/27 16:31:20;;;;;;;;;;;;;;;;;;2194403;59;5105;-23
2024/03/27 16:33:51;;;;;;;;;;;;;;;;;;2196568;59;8688;-23
2024/03/27 16:36:22;;;;;;;;;;;;;;;;;;2201430;67;1961;-23
2024/03/27 16:38:52;;;;;;;;;;;;;;;;;;2199554;59;2207;-23
2024/03/27 16:41:23;;;;;;;;;;;;;;;;;;2201449;59;2677;-23
2024/03/27 16:43:53;;;;;;;;;;;;;;;;;;2199404;59;2139;-23
2024/03/27 16:46:23;;;;;;;;;;;;;;;;;;2201248;59;2734;-23
2024/03/27 16:48:54;;;;;;;;;;;;;;;;;;2197259;67;2039;-23
2024/03/27 16:51:24;;;;;;;;;;;;;;;;;;2202043;67;2393;-23
2024/03/27 16:53:55;;;;;;;;;;;;;;;;;;2198906;59;3043;-22
2024/03/27 16:56:25;;;;;;;;;;;;;;;;;;2201150;67;2588;-23
2024/03/27 16:58:56;;;;;;;;;;;;;;;;;;2195709;59;2288;-22
2024/03/27 17:01:27;;;;;;;;;;;;;;;;;;2201702;67;2101;-23
2024/03/27 17:03:57;;;;;;;;;;;;;;;;;;2199291;59;3252;-22
2024/03/27 17:06:28;;;;;;;;;;;;;;;;;;2197973;67;1950;-22
2024/03/27 17:08:58;;;;;;;;;;;;;;;;;;2200014;67;2030;-23
2024/03/27 17:11:28;;;;;;;;;;;;;;;;;;2201827;59;2076;-23
2024/03/27 17:13:58;;;;;;;;;;;;;;;;;;2199916;59;2189;-23
2024/03/27 17:16:28;;;;;;;;;;;;;;;;;;2201559;59;2145;-22
2024/03/27 17:18:59;;;;;;;;;;;;;;;;;;2199948;59;1942;-22
2024/03/27 17:21:29;;;;;;;;;;;;;;;;;;2201536;59;2096;-22
2024/03/27 17:23:59;;;;;;;;;;;;;;;;;;2199854;67;2448;-22
2024/03/27 17:26:30;;;;;;;;;;;;;;;;;;2197594;67;2340;-23
2024/03/27 17:29:01;;;;;;;;;;;;;;;;;;2201327;67;1932;-23
2024/03/27 17:31:31;;;;;;;;;;;;;;;;;;2200288;67;2299;-22